Time;durP1;ratioP1;P1;durP2;ratioP2;P2;SDS_P1;SDS_P2;PMS_P1;PMS_P2;Temp;Humidity;BMP_temperature;BMP_pressure;BME280_temperature;BME280_humidity;BME280_pressure;Samples;Min_cycle;Max_cycle;Signal;HPM_P1;HPM_P2
2023/07/13 00:00:11;;;;;;;3.63;1.50;;;;;;;;;;7304898;19;141930;-75
2023/07/13 00:02:38;;;;;;;2.67;1.40;;;;;;;;;;7305468;19;140446;-76
2023/07/13 00:05:06;;;;;;;2.85;1.38;;;;;;;;;;7302289;19;140963;-76
2023/07/13 00:07:33;;;;;;;3.25;1.42;;;;;;;;;;7304574;19;140711;-78
2023/07/13 00:10:02;;;;;;;4.82;1.77;;;;;;;;;;7303618;19;141479;-78
2023/07/13 00:12:30;;;;;;;3.00;1.42;;;;;;;;;;7304699;19;140552;-77
2023/07/13 00:14:58;;;;;;;2.33;1.25;;;;;;;;;;7304238;19;140573;-77
2023/07/13 00:17:26;;;;;;;2.63;1.30;;;;;;;;;;7304019;19;141359;-76
2023/07/13 00:19:55;;;;;;;2.92;1.35;;;;;;;;;;7303689;19;142744;-76
2023/07/13 00:22:25;;;;;;;2.47;1.20;;;;;;;;;;7304427;19;140682;-76
2023/07/13 00:24:55;;;;;;;2.07;1.10;;;;;;;;;;7304205;19;140678;-75
2023/07/13 00:27:23;;;;;;;2.15;1.20;;;;;;;;;;7303957;19;143298;-75
2023/07/13 00:29:50;;;;;;;2.72;1.40;;;;;;;;;;7304219;19;142064;-75
2023/07/13 00:32:16;;;;;;;1.13;1.00;;;;;;;;;;7303874;19;140585;-76
2023/07/13 00:34:44;;;;;;;4.28;1.60;;;;;;;;;;7303403;19;140648;-73
2023/07/13 00:37:11;;;;;;;2.45;1.23;;;;;;;;;;7304012;19;140889;-76
2023/07/13 00:39:38;;;;;;;1.77;1.08;;;;;;;;;;7302896;19;142948;-76
2023/07/13 00:42:06;;;;;;;2.70;1.30;;;;;;;;;;7303824;19;140818;-78
2023/07/13 00:44:33;;;;;;;2.08;1.20;;;;;;;;;;7303264;19;140599;-76
2023/07/13 00:47:00;;;;;;;0.95;0.85;;;;;;;;;;7303139;19;142063;-76
2023/07/13 00:49:29;;;;;;;2.60;1.20;;;;;;;;;;7303341;19;142044;-76
2023/07/13 00:52:06;;;;;;;3.20;1.20;;;;;;;;;;7303100;19;140427;-76
2023/07/13 00:54:36;;;;;;;1.95;0.95;;;;;;;;;;7303719;19;140433;-76
2023/07/13 00:57:05;;;;;;;1.50;1.02;;;;;;;;;;7303163;19;141223;-76
2023/07/13 00:59:34;;;;;;;2.00;1.08;;;;;;;;;;7305286;19;141387;-76
2023/07/13 01:02:02;;;;;;;2.05;1.00;;;;;;;;;;7303275;19;140669;-76
2023/07/13 01:04:29;;;;;;;3.33;0.93;;;;;;;;;;7302744;19;140396;-76
2023/07/13 01:06:57;;;;;;;1.35;0.98;;;;;;;;;;7302993;19;141892;-76
2023/07/13 01:09:26;;;;;;;1.45;1.00;;;;;;;;;;7302628;19;142942;-76
2023/07/13 01:11:53;;;;;;;1.38;0.90;;;;;;;;;;7302895;19;140470;-76
2023/07/13 01:14:20;;;;;;;1.75;0.85;;;;;;;;;;7302410;19;140643;-76
2023/07/13 01:16:48;;;;;;;2.67;1.05;;;;;;;;;;7302168;19;141257;-76
2023/07/13 01:19:18;;;;;;;1.20;0.70;;;;;;;;;;7302648;19;141291;-77
2023/07/13 01:21:49;;;;;;;2.28;0.95;;;;;;;;;;7301603;19;140809;-76
2023/07/13 01:24:16;;;;;;;0.70;0.70;;;;;;;;;;7301423;19;140553;-76
2023/07/13 01:26:43;;;;;;;1.50;0.90;;;;;;;;;;7300627;19;141347;-75
2023/07/13 01:29:10;;;;;;;1.58;0.80;;;;;;;;;;7301593;19;142080;-77
2023/07/13 01:31:37;;;;;;;1.08;0.80;;;;;;;;;;7302264;19;140633;-77
2023/07/13 01:34:05;;;;;;;2.45;0.90;;;;;;;;;;7300256;19;140680;-77
2023/07/13 01:36:33;;;;;;;0.95;0.70;;;;;;;;;;7301353;19;142061;-77
2023/07/13 01:39:00;;;;;;;0.65;0.65;;;;;;;;;;7301588;19;143054;-77
2023/07/13 01:41:27;;;;;;;1.05;0.88;;;;;;;;;;7301963;19;140526;-79
2023/07/13 01:43:54;;;;;;;1.40;0.70;;;;;;;;;;7300497;19;140843;-79
2023/07/13 01:46:23;;;;;;;1.55;0.90;;;;;;;;;;7302262;19;141071;-79
2023/07/13 01:48:51;;;;;;;0.80;0.80;;;;;;;;;;7302218;19;140910;-79
2023/07/13 01:51:19;;;;;;;2.83;1.00;;;;;;;;;;7301517;19;140490;-78
2023/07/13 01:53:46;;;;;;;0.93;0.80;;;;;;;;;;7302113;19;140668;-78
2023/07/13 01:56:13;;;;;;;0.80;0.70;;;;;;;;;;7301192;19;141881;-79
2023/07/13 01:58:40;;;;;;;0.70;0.70;;;;;;;;;;7301138;19;143106;-78
2023/07/13 02:01:07;;;;;;;1.05;0.60;;;;;;;;;;7301559;19;140515;-78
2023/07/13 02:03:34;;;;;;;1.35;0.80;;;;;;;;;;7301266;19;140620;-78
2023/07/13 02:06:01;;;;;;;1.70;0.68;;;;;;;;;;7300188;19;141184;-78
2023/07/13 02:08:29;;;;;;;1.95;0.90;;;;;;;;;;7300932;19;142463;-78
2023/07/13 02:10:55;;;;;;;2.47;0.77;;;;;;;;;;7299175;19;140756;-78
2023/07/13 02:13:22;;;;;;;1.25;0.80;;;;;;;;;;7300778;19;140694;-79
2023/07/13 02:15:50;;;;;;;1.90;0.75;;;;;;;;;;7300895;19;142371;-78
2023/07/13 02:18:17;;;;;;;1.52;0.70;;;;;;;;;;7300487;19;142657;-78
2023/07/13 02:20:48;;;;;;;1.23;0.70;;;;;;;;;;7298687;19;140481;-76
2023/07/13 02:23:14;;;;;;;2.28;0.90;;;;;;;;;;7300558;19;140737;-78
2023/07/13 02:25:41;;;;;;;1.35;0.77;;;;;;;;;;7300017;19;141047;-78
2023/07/13 02:28:09;;;;;;;1.67;0.90;;;;;;;;;;7300326;19;142604;-77
2023/07/13 02:30:36;;;;;;;1.73;0.70;;;;;;;;;;7300350;19;142420;-77
2023/07/13 02:33:03;;;;;;;1.50;0.80;;;;;;;;;;7301190;19;140564;-75
2023/07/13 02:35:30;;;;;;;1.80;0.80;;;;;;;;;;7302414;19;141025;-77
2023/07/13 02:37:57;;;;;;;2.58;1.33;;;;;;;;;;7306614;19;141984;-77
2023/07/13 02:40:24;;;;;;;1.10;0.60;;;;;;;;;;7306733;19;140631;-77
2023/07/13 02:42:51;;;;;;;1.48;0.88;;;;;;;;;;7307412;19;140438;-74
2023/07/13 02:45:19;;;;;;;1.23;0.70;;;;;;;;;;7307109;19;140793;-76
2023/07/13 02:47:46;;;;;;;1.08;0.70;;;;;;;;;;7306885;19;141888;-76
2023/07/13 02:50:13;;;;;;;1.00;0.80;;;;;;;;;;7307376;19;140499;-76
2023/07/13 02:52:40;;;;;;;0.90;0.60;;;;;;;;;;7306803;19;140616;-75
2023/07/13 02:55:07;;;;;;;1.83;0.90;;;;;;;;;;7306822;19;140847;-76
2023/07/13 02:57:34;;;;;;;1.60;0.82;;;;;;;;;;7306636;19;142190;-76
2023/07/13 03:00:05;;;;;;;1.55;0.90;;;;;;;;;;7306720;19;140621;-75
2023/07/13 03:02:32;;;;;;;1.70;0.90;;;;;;;;;;7306183;19;140417;-76
2023/07/13 03:05:00;;;;;;;1.08;0.80;;;;;;;;;;7307027;19;141147;-76
2023/07/13 03:07:27;;;;;;;1.70;0.93;;;;;;;;;;7305994;19;141858;-76
2023/07/13 03:09:55;;;;;;;1.40;0.80;;;;;;;;;;7305227;19;140498;-77
2023/07/13 03:12:22;;;;;;;2.38;0.90;;;;;;;;;;7306753;19;140389;-75
2023/07/13 03:14:50;;;;;;;1.10;0.70;;;;;;;;;;7306243;19;140946;-76
2023/07/13 03:17:17;;;;;;;1.13;0.75;;;;;;;;;;7306323;19;142449;-75
2023/07/13 03:19:44;;;;;;;1.83;0.90;;;;;;;;;;7307075;19;140785;-76
2023/07/13 03:22:11;;;;;;;1.20;0.70;;;;;;;;;;7305920;19;140685;-76
2023/07/13 03:24:38;;;;;;;1.40;0.90;;;;;;;;;;7305518;19;141059;-76
2023/07/13 03:27:05;;;;;;;3.17;1.00;;;;;;;;;;7305180;19;141954;-77
2023/07/13 03:29:32;;;;;;;1.35;1.00;;;;;;;;;;7306493;19;140683;-77
2023/07/13 03:32:00;;;;;;;1.15;1.00;;;;;;;;;;7306517;19;140698;-76
2023/07/13 03:34:27;;;;;;;3.00;1.10;;;;;;;;;;7304953;19;141158;-76
2023/07/13 03:36:55;;;;;;;1.33;1.05;;;;;;;;;;7303652;19;140671;-77
2023/07/13 03:39:22;;;;;;;2.20;1.40;;;;;;;;;;7305561;19;140453;-76
2023/07/13 03:41:49;;;;;;;1.30;1.20;;;;;;;;;;7305269;19;140509;-77
2023/07/13 03:44:17;;;;;;;1.58;1.38;;;;;;;;;;7305786;19;141017;-78
2023/07/13 03:46:44;;;;;;;1.90;1.40;;;;;;;;;;7304682;19;140678;-77
2023/07/13 03:49:12;;;;;;;2.30;1.50;;;;;;;;;;7303494;19;140516;-77
2023/07/13 03:51:39;;;;;;;1.67;1.58;;;;;;;;;;7304090;19;140823;-76
2023/07/13 03:54:06;;;;;;;2.95;1.92;;;;;;;;;;7305343;19;141155;-77
2023/07/13 03:56:33;;;;;;;3.40;1.85;;;;;;;;;;7304473;19;142561;-77
2023/07/13 03:59:01;;;;;;;3.42;1.85;;;;;;;;;;7305211;19;140891;-76
2023/07/13 04:01:28;;;;;;;2.65;1.70;;;;;;;;;;7305236;19;140437;-76
2023/07/13 04:03:55;;;;;;;2.05;1.63;;;;;;;;;;7304863;19;140495;-75
2023/07/13 04:06:24;;;;;;;4.30;1.85;;;;;;;;;;7304793;19;141943;-75
2023/07/13 04:08:52;;;;;;;2.45;1.70;;;;;;;;;;7304691;19;140588;-76
2023/07/13 04:11:20;;;;;;;2.50;1.70;;;;;;;;;;7304395;19;140718;-76
2023/07/13 04:13:48;;;;;;;2.55;1.65;;;;;;;;;;7304127;19;140860;-75
2023/07/13 04:16:15;;;;;;;1.70;1.45;;;;;;;;;;7304347;19;142421;-76
2023/07/13 04:18:42;;;;;;;1.85;1.50;;;;;;;;;;7304824;19;140719;-75
2023/07/13 04:21:09;;;;;;;1.70;1.38;;;;;;;;;;7303740;19;140592;-76
2023/07/13 04:23:37;;;;;;;1.40;1.30;;;;;;;;;;7303715;19;141249;-76
2023/07/13 04:26:05;;;;;;;4.82;1.73;;;;;;;;;;7303482;19;141888;-76
2023/07/13 04:28:31;;;;;;;1.58;1.33;;;;;;;;;;7303825;19;140771;-78
2023/07/13 04:30:59;;;;;;;2.28;1.58;;;;;;;;;;7303319;19;140573;-77
2023/07/13 04:33:26;;;;;;;1.50;1.40;;;;;;;;;;7304001;19;142069;-78
2023/07/13 04:35:56;;;;;;;3.15;1.70;;;;;;;;;;7303620;19;141900;-77
2023/07/13 04:38:24;;;;;;;1.77;1.50;;;;;;;;;;7303475;19;140957;-77
2023/07/13 04:40:51;;;;;;;4.00;2.10;;;;;;;;;;7303802;19;140459;-77
2023/07/13 04:43:18;;;;;;;1.67;1.52;;;;;;;;;;7304010;19;141810;-78
2023/07/13 04:45:46;;;;;;;1.92;1.63;;;;;;;;;;7303381;19;142167;-72
2023/07/13 04:48:13;;;;;;;2.67;1.50;;;;;;;;;;7303696;19;140694;-72
2023/07/13 04:50:40;;;;;;;2.47;1.67;;;;;;;;;;7303318;19;140826;-76
2023/07/13 04:53:07;;;;;;;3.97;1.85;;;;;;;;;;7302883;19;140695;-83
2023/07/13 04:55:34;;;;;;;2.72;1.67;;;;;;;;;;7301577;19;141897;-80
2023/07/13 04:58:02;;;;;;;2.47;1.65;;;;;;;;;;7299354;19;140616;-79
2023/07/13 05:00:32;;;;;;;3.58;1.60;;;;;;;;;;7303855;19;140793;-81
2023/07/13 05:03:00;;;;;;;3.10;1.90;;;;;;;;;;7302308;19;140934;-81
2023/07/13 05:05:27;;;;;;;2.03;1.70;;;;;;;;;;7301251;19;142391;-88
2023/07/13 05:07:54;;;;;;;3.30;1.88;;;;;;;;;;7302852;19;140794;-80
2023/07/13 05:10:22;;;;;;;2.58;2.03;;;;;;;;;;7303381;19;140499;-86
2023/07/13 05:12:49;;;;;;;3.35;2.25;;;;;;;;;;7327657;19;140949;-93
2023/07/13 05:15:20;;;;;;;2.80;2.20;;;;;;;;;;7324448;19;141400;-95
2023/07/13 05:17:48;;;;;;;3.75;2.17;;;;;;;;;;7311610;19;139269;-94
2023/07/13 05:20:15;;;;;;;4.68;2.45;;;;;;;;;;7306253;19;140358;-83
2023/07/13 05:22:43;;;;;;;2.80;2.20;;;;;;;;;;7302823;19;141924;-92
2023/07/13 05:25:10;;;;;;;3.38;2.40;;;;;;;;;;7304309;19;140781;-93
2023/07/13 05:27:38;;;;;;;2.38;2.10;;;;;;;;;;7303257;19;140630;-90
2023/07/13 05:30:06;;;;;;;3.75;2.50;;;;;;;;;;7301228;19;140713;-93
2023/07/13 05:32:33;;;;;;;3.45;2.05;;;;;;;;;;7303337;19;142087;-91
2023/07/13 05:35:00;;;;;;;2.80;1.95;;;;;;;;;;7302983;19;142089;-89
2023/07/13 05:37:27;;;;;;;3.97;2.35;;;;;;;;;;7302255;19;140486;-89
2023/07/13 05:39:54;;;;;;;3.63;2.38;;;;;;;;;;7302486;19;140782;-89
2023/07/13 05:42:21;;;;;;;2.40;2.20;;;;;;;;;;7302799;19;141641;-88
2023/07/13 05:44:51;;;;;;;3.08;1.88;;;;;;;;;;7302296;19;142582;-88
2023/07/13 05:47:18;;;;;;;4.05;2.30;;;;;;;;;;7302192;19;140626;-89
2023/07/13 05:49:45;;;;;;;2.97;2.20;;;;;;;;;;7302608;19;140914;-89
2023/07/13 05:52:12;;;;;;;3.17;2.25;;;;;;;;;;7301200;19;140780;-89
2023/07/13 05:54:39;;;;;;;2.83;2.05;;;;;;;;;;7299619;19;142778;-88
2023/07/13 05:57:06;;;;;;;2.60;2.22;;;;;;;;;;7302378;19;140330;-88
2023/07/13 05:59:33;;;;;;;2.45;2.00;;;;;;;;;;7302814;19;140844;-87
2023/07/13 06:02:01;;;;;;;2.53;2.15;;;;;;;;;;7302616;19;141203;-91
2023/07/13 06:04:28;;;;;;;2.65;2.22;;;;;;;;;;7301389;19;142323;-90
2023/07/13 06:06:55;;;;;;;3.10;2.40;;;;;;;;;;7301252;19;140650;-90
2023/07/13 06:09:22;;;;;;;2.65;2.20;;;;;;;;;;7302144;19;140628;-89
2023/07/13 06:11:49;;;;;;;2.10;1.80;;;;;;;;;;7301668;19;141648;-89
2023/07/13 06:14:16;;;;;;;4.32;2.40;;;;;;;;;;7300645;19;142614;-88
2023/07/13 06:16:43;;;;;;;3.63;2.00;;;;;;;;;;7301901;19;140710;-86
2023/07/13 06:19:11;;;;;;;3.25;2.33;;;;;;;;;;7301101;19;140794;-83
2023/07/13 06:21:38;;;;;;;3.63;2.08;;;;;;;;;;7300615;19;141352;-88
2023/07/13 06:24:05;;;;;;;3.65;2.22;;;;;;;;;;7299527;19;142716;-86
2023/07/13 06:26:32;;;;;;;3.72;2.28;;;;;;;;;;7299042;19;140727;-82
2023/07/13 06:28:59;;;;;;;3.50;2.15;;;;;;;;;;7300582;19;140739;-82
2023/07/13 06:31:26;;;;;;;3.20;2.20;;;;;;;;;;7299805;19;141352;-81
2023/07/13 06:33:53;;;;;;;2.22;1.77;;;;;;;;;;7300712;19;142528;-83
2023/07/13 06:36:20;;;;;;;3.42;2.10;;;;;;;;;;7299698;19;140566;-82
2023/07/13 06:38:47;;;;;;;3.88;2.22;;;;;;;;;;7299943;19;140469;-84
2023/07/13 06:41:14;;;;;;;3.55;1.95;;;;;;;;;;7300346;19;141139;-88
2023/07/13 06:43:41;;;;;;;2.45;2.20;;;;;;;;;;7299826;19;142004;-84
2023/07/13 06:46:09;;;;;;;5.90;2.63;;;;;;;;;;7300533;19;140474;-82
2023/07/13 06:48:36;;;;;;;2.60;2.08;;;;;;;;;;7299480;19;140531;-83
2023/07/13 06:51:03;;;;;;;3.28;2.15;;;;;;;;;;7299027;19;141238;-80
2023/07/13 06:53:30;;;;;;;4.30;2.35;;;;;;;;;;7298305;19;141801;-78
2023/07/13 06:55:57;;;;;;;4.30;2.60;;;;;;;;;;7298638;19;140599;-74
2023/07/13 06:58:24;;;;;;;6.13;3.00;;;;;;;;;;7296919;19;141322;-76
2023/07/13 07:00:52;;;;;;;4.32;2.28;;;;;;;;;;7298792;19;141025;-75
2023/07/13 07:03:19;;;;;;;5.72;2.30;;;;;;;;;;7298897;19;140850;-75
2023/07/13 07:05:47;;;;;;;3.70;2.38;;;;;;;;;;7296862;19;140631;-74
2023/07/13 07:08:14;;;;;;;4.15;2.35;;;;;;;;;;7297657;19;140510;-75
2023/07/13 07:10:41;;;;;;;3.45;2.28;;;;;;;;;;7299124;19;141057;-75
2023/07/13 07:13:09;;;;;;;2.88;2.05;;;;;;;;;;7298132;19;141075;-75
2023/07/13 07:15:37;;;;;;;4.32;2.20;;;;;;;;;;7299359;19;140696;-75
2023/07/13 07:18:04;;;;;;;5.38;2.58;;;;;;;;;;7298045;19;140512;-75
2023/07/13 07:20:32;;;;;;;2.65;2.00;;;;;;;;;;7296226;19;141000;-75
2023/07/13 07:22:59;;;;;;;3.95;2.40;;;;;;;;;;7304632;19;142284;-74
2023/07/13 07:25:27;;;;;;;2.58;2.10;;;;;;;;;;7305123;19;140389;-74
2023/07/13 07:27:54;;;;;;;4.43;2.10;;;;;;;;;;7305486;19;140401;-74
2023/07/13 07:30:24;;;;;;;3.90;2.07;;;;;;;;;;7305083;19;142055;-74
2023/07/13 07:32:54;;;;;;;3.97;1.98;;;;;;;;;;7304700;19;142875;-75
2023/07/13 07:35:23;;;;;;;2.90;1.85;;;;;;;;;;7305096;19;140877;-74
2023/07/13 07:37:50;;;;;;;3.45;1.80;;;;;;;;;;7304466;19;140560;-74
2023/07/13 07:40:18;;;;;;;4.35;2.45;;;;;;;;;;7304171;19;140938;-75
2023/07/13 07:42:51;;;;;;;3.33;2.20;;;;;;;;;;7304632;19;140674;-74
2023/07/13 07:45:18;;;;;;;5.10;2.43;;;;;;;;;;7303790;19;140781;-74
2023/07/13 07:47:45;;;;;;;3.10;2.15;;;;;;;;;;7304093;19;140474;-74
2023/07/13 07:50:13;;;;;;;3.28;2.17;;;;;;;;;;7304342;19;141843;-75
2023/07/13 07:52:40;;;;;;;3.50;2.00;;;;;;;;;;7304584;19;141732;-75
2023/07/13 07:55:07;;;;;;;3.90;2.15;;;;;;;;;;7304452;19;141315;-74
2023/07/13 07:57:37;;;;;;;4.45;2.20;;;;;;;;;;7304626;19;140472;-74
2023/07/13 08:00:08;;;;;;;6.75;2.67;;;;;;;;;;7301832;19;143521;-74
2023/07/13 08:02:55;;;;;;;3.95;2.10;;;;;;;;;;7304670;19;140845;-75
2023/07/13 08:05:42;;;;;;;2.10;1.73;;;;;;;;;;7304619;19;140840;-75
2023/07/13 08:08:21;;;;;;;3.63;1.92;;;;;;;;;;7303155;19;141040;-75
2023/07/13 08:10:48;;;;;;;2.67;1.83;;;;;;;;;;7304195;19;141527;-75
2023/07/13 08:13:16;;;;;;;4.40;2.15;;;;;;;;;;7303106;19;142343;-75
2023/07/13 08:15:43;;;;;;;2.92;1.75;;;;;;;;;;7303415;19;140860;-74
2023/07/13 08:18:10;;;;;;;2.47;1.80;;;;;;;;;;7304316;19;140596;-74
2023/07/13 08:20:38;;;;;;;3.10;1.95;;;;;;;;;;7303285;19;140450;-74
2023/07/13 08:23:07;;;;;;;4.35;2.15;;;;;;;;;;7302083;19;142041;-74
2023/07/13 08:25:34;;;;;;;2.47;1.83;;;;;;;;;;7303326;19;140458;-75
2023/07/13 08:28:02;;;;;;;5.95;2.55;;;;;;;;;;7303634;19;140573;-75
2023/07/13 08:30:29;;;;;;;4.30;2.17;;;;;;;;;;7302344;19;141099;-75
2023/07/13 08:32:56;;;;;;;5.50;2.55;;;;;;;;;;7302444;19;142060;-74
2023/07/13 08:35:25;;;;;;;3.90;2.20;;;;;;;;;;7303253;19;140688;-74
2023/07/13 08:37:52;;;;;;;3.08;1.85;;;;;;;;;;7302252;19;140888;-74
2023/07/13 08:40:22;;;;;;;5.20;2.15;;;;;;;;;;7303245;19;141890;-74
2023/07/13 08:42:59;;;;;;;4.22;2.20;;;;;;;;;;7300967;19;142075;-74
2023/07/13 08:45:33;;;;;;;3.17;1.98;;;;;;;;;;7303728;19;140481;-74
2023/07/13 08:48:03;;;;;;;3.00;2.05;;;;;;;;;;7304123;19;140796;-75
2023/07/13 08:50:35;;;;;;;2.47;1.85;;;;;;;;;;7303005;19;140372;-74
2023/07/13 08:53:20;;;;;;;3.25;1.70;;;;;;;;;;7302492;19;142756;-74
2023/07/13 08:55:57;;;;;;;5.32;2.28;;;;;;;;;;7303640;19;140618;-75
2023/07/13 08:58:28;;;;;;;3.33;2.05;;;;;;;;;;7302637;19;140855;-74
2023/07/13 09:01:05;;;;;;;4.60;2.00;;;;;;;;;;7302727;19;141928;-74
2023/07/13 09:03:51;;;;;;;6.30;2.20;;;;;;;;;;7300927;19;142047;-75
2023/07/13 09:06:19;;;;;;;4.22;1.92;;;;;;;;;;7302881;19;140570;-74
2023/07/13 09:08:53;;;;;;;3.53;1.92;;;;;;;;;;7301700;19;140471;-74
2023/07/13 09:11:34;;;;;;;4.70;1.90;;;;;;;;;;7301391;19;140579;-74
2023/07/13 09:14:01;;;;;;;;;;;;;;;;;;7300491;19;140834;-74
2023/07/13 09:16:29;;;;;;;4.97;1.63;;;;;;;;;;7301874;19;140765;-75
2023/07/13 09:19:00;;;;;;;2.78;1.67;;;;;;;;;;7301735;19;140690;-74
2023/07/13 09:21:30;;;;;;;5.28;1.95;;;;;;;;;;7302131;19;140771;-75
2023/07/13 09:24:14;;;;;;;4.78;2.25;;;;;;;;;;7300607;19;143056;-74
2023/07/13 09:26:41;;;;;;;4.25;1.83;;;;;;;;;;7300703;19;140546;-75
2023/07/13 09:29:15;;;;;;;3.60;1.80;;;;;;;;;;7301529;19;140640;-75
2023/07/13 09:31:45;;;;;;;3.35;1.63;;;;;;;;;;7301220;19;141007;-75
2023/07/13 09:34:12;;;;;;;;;;;;;;;;;;7302183;19;140819;-75
2023/07/13 09:36:39;;;;;;;3.22;1.67;;;;;;;;;;7301880;19;140572;-74
2023/07/13 09:39:27;;;;;;;4.25;1.98;;;;;;;;;;7300766;19;140804;-75
2023/07/13 09:42:01;;;;;;;3.55;1.67;;;;;;;;;;7301216;19;141232;-75
2023/07/13 09:44:33;;;;;;;5.20;2.15;;;;;;;;;;7299252;19;142413;-74
2023/07/13 09:47:00;;;;;;;4.60;1.80;;;;;;;;;;7300572;19;140436;-75
2023/07/13 09:49:28;;;;;;;4.47;1.95;;;;;;;;;;7301815;19;140578;-74
2023/07/13 09:52:00;;;;;;;4.68;1.83;;;;;;;;;;7301495;19;141123;-75
2023/07/13 09:54:27;;;;;;;3.63;1.45;;;;;;;;;;7300589;19;142104;-75
2023/07/13 09:56:56;;;;;;;4.70;2.17;;;;;;;;;;7300188;19;140653;-75
2023/07/13 09:59:24;;;;;;;4.15;1.80;;;;;;;;;;7300872;19;140475;-75
2023/07/13 10:01:52;;;;;;;3.88;1.60;;;;;;;;;;7301033;19;141704;-75
2023/07/13 10:04:19;;;;;;;3.88;1.77;;;;;;;;;;7299581;19;142749;-75
2023/07/13 10:06:46;;;;;;;2.38;1.30;;;;;;;;;;7300812;19;140844;-75
2023/07/13 10:09:18;;;;;;;3.08;1.60;;;;;;;;;;7301319;19;140490;-75
2023/07/13 10:11:45;;;;;;;3.13;1.55;;;;;;;;;;7299437;19;141793;-75
2023/07/13 10:14:14;;;;;;;3.42;1.42;;;;;;;;;;7299474;19;141519;-74
2023/07/13 10:16:43;;;;;;;4.88;1.75;;;;;;;;;;7300536;19;140563;-75
2023/07/13 10:19:22;;;;;;;4.07;1.77;;;;;;;;;;7300430;19;140631;-75
2023/07/13 10:21:52;;;;;;;4.32;1.35;;;;;;;;;;7298739;19;140883;-74
2023/07/13 10:24:21;;;;;;;6.47;2.03;;;;;;;;;;7297608;19;143366;-74
2023/07/13 10:26:52;;;;;;;2.58;1.38;;;;;;;;;;7300073;19;140780;-74
2023/07/13 10:29:20;;;;;;;3.25;1.40;;;;;;;;;;7300243;19;140489;-74
2023/07/13 10:31:47;;;;;;;2.50;1.45;;;;;;;;;;7299686;19;141926;-74
2023/07/13 10:34:14;;;;;;;2.88;1.35;;;;;;;;;;7300034;19;142524;-73
2023/07/13 10:36:46;;;;;;;5.25;1.50;;;;;;;;;;7299723;19;140532;-73
2023/07/13 10:39:16;;;;;;;2.42;1.15;;;;;;;;;;7298102;19;140748;-73
2023/07/13 10:41:44;;;;;;;2.97;1.30;;;;;;;;;;7299220;19;141001;-74
2023/07/13 10:44:20;;;;;;;6.90;2.10;;;;;;;;;;7299546;19;140935;-74
2023/07/13 10:46:47;;;;;;;4.57;1.60;;;;;;;;;;7298386;19;140448;-75
2023/07/13 10:49:16;;;;;;;5.03;1.52;;;;;;;;;;7298722;19;140977;-75
2023/07/13 10:51:43;;;;;;;3.75;1.20;;;;;;;;;;7298979;19;141199;-74
2023/07/13 10:54:23;;;;;;;4.95;1.83;;;;;;;;;;7299113;19;142055;-74
2023/07/13 10:57:10;;;;;;;2.95;1.20;;;;;;;;;;7305710;19;140544;-74
2023/07/13 10:59:37;;;;;;;2.20;1.17;;;;;;;;;;7306694;19;140539;-74
2023/07/13 11:02:04;;;;;;;3.08;1.33;;;;;;;;;;7306266;19;141015;-74
2023/07/13 11:04:47;;;;;;;4.32;1.55;;;;;;;;;;7304763;19;140722;-74
2023/07/13 11:07:22;;;;;;;2.33;1.15;;;;;;;;;;7306742;19;140601;-74
2023/07/13 11:09:51;;;;;;;2.00;1.20;;;;;;;;;;7306319;19;140800;-74
2023/07/13 11:12:25;;;;;;;2.33;1.02;;;;;;;;;;7304930;19;141314;-74
2023/07/13 11:14:55;;;;;;;4.28;1.52;;;;;;;;;;7305455;19;141851;-74
2023/07/13 11:17:41;;;;;;;1.30;1.00;;;;;;;;;;7305816;19;140690;-74
2023/07/13 11:20:11;;;;;;;2.25;1.20;;;;;;;;;;7306020;19;140463;-73
2023/07/13 11:22:42;;;;;;;2.72;1.42;;;;;;;;;;7305881;19;141565;-73
2023/07/13 11:25:18;;;;;;;2.65;1.38;;;;;;;;;;7305537;19;141250;-75
2023/07/13 11:27:48;;;;;;;2.55;1.20;;;;;;;;;;7306517;19;140709;-73
2023/07/13 11:30:24;;;;;;;3.15;1.17;;;;;;;;;;7304731;19;140469;-73
2023/07/13 11:33:02;;;;;;;3.92;1.45;;;;;;;;;;7305481;19;141224;-73
2023/07/13 11:35:30;;;;;;;3.38;1.20;;;;;;;;;;7305714;19;141996;-75
2023/07/13 11:37:57;;;;;;;2.53;1.23;;;;;;;;;;7305562;19;140494;-74
2023/07/13 11:40:27;;;;;;;3.80;1.30;;;;;;;;;;7303895;19;140660;-74
2023/07/13 11:43:01;;;;;;;6.40;1.40;;;;;;;;;;7305464;19;141233;-74
2023/07/13 11:45:28;;;;;;;2.45;1.17;;;;;;;;;;7305274;19;142381;-74
2023/07/13 11:48:23;;;;;;;2.38;1.08;;;;;;;;;;7305756;19;140290;-77
2023/07/13 11:51:02;;;;;;;4.03;1.58;;;;;;;;;;7303833;19;140867;-76
2023/07/13 11:53:35;;;;;;;5.28;1.80;;;;;;;;;;7304424;19;140368;-76
2023/07/13 11:56:02;;;;;;;2.20;1.20;;;;;;;;;;7305317;19;141874;-78
2023/07/13 11:58:29;;;;;;;4.13;1.42;;;;;;;;;;7304925;19;140475;-76
2023/07/13 12:00:59;;;;;;;3.42;1.20;;;;;;;;;;7304511;19;140542;-77
2023/07/13 12:03:26;;;;;;;2.20;1.27;;;;;;;;;;7304770;19;141979;-77
2023/07/13 12:05:57;;;;;;;3.65;1.67;;;;;;;;;;7304755;19;141408;-76
2023/07/13 12:08:24;;;;;;;3.35;1.30;;;;;;;;;;7302048;19;141335;-76
2023/07/13 12:11:04;;;;;;;3.60;1.30;;;;;;;;;;7304532;19;140589;-75
2023/07/13 12:13:36;;;;;;;2.58;1.17;;;;;;;;;;7304587;19;141400;-76
2023/07/13 12:16:10;;;;;;;3.65;1.42;;;;;;;;;;7304017;19;141047;-76
2023/07/13 12:18:38;;;;;;;3.28;1.23;;;;;;;;;;7304501;19;140593;-76
2023/07/13 12:21:12;;;;;;;3.33;1.33;;;;;;;;;;7303719;19;140604;-74
2023/07/13 12:23:42;;;;;;;2.55;1.23;;;;;;;;;;7303879;19;141035;-75
2023/07/13 12:26:11;;;;;;;3.60;1.30;;;;;;;;;;7302676;19;141053;-76
2023/07/13 12:28:46;;;;;;;2.15;1.25;;;;;;;;;;7304231;19;140568;-76
2023/07/13 12:31:40;;;;;;;1.88;1.08;;;;;;;;;;7304297;19;140771;-76
2023/07/13 12:34:07;;;;;;;2.60;1.10;;;;;;;;;;7301723;19;142833;-75
2023/07/13 12:36:35;;;;;;;2.03;1.00;;;;;;;;;;7304376;19;142825;-76
2023/07/13 12:39:23;;;;;;;1.23;0.80;;;;;;;;;;7304312;19;140371;-78
2023/07/13 12:41:51;;;;;;;2.83;1.00;;;;;;;;;;7303920;19;140830;-78
2023/07/13 12:44:26;;;;;;;2.40;0.90;;;;;;;;;;7303322;19;140741;-77
2023/07/13 12:47:04;;;;;;;2.30;1.10;;;;;;;;;;7303898;19;141279;-77
2023/07/13 12:49:34;;;;;;;3.65;1.20;;;;;;;;;;7304088;19;140555;-77
2023/07/13 12:52:03;;;;;;;1.67;0.98;;;;;;;;;;7302704;19;140739;-75
2023/07/13 12:54:32;;;;;;;3.15;1.20;;;;;;;;;;7303469;19;141351;-77
2023/07/13 12:57:02;;;;;;;2.88;1.17;;;;;;;;;;7301143;19;141254;-78
2023/07/13 12:59:32;;;;;;;2.13;1.10;;;;;;;;;;7302033;19;140514;-79
2023/07/13 13:02:00;;;;;;;2.97;1.13;;;;;;;;;;7301089;19;140479;-78
2023/07/13 13:04:28;;;;;;;3.72;1.05;;;;;;;;;;7302370;19;140734;-78
2023/07/13 13:07:03;;;;;;;9.98;2.88;;;;;;;;;;7301083;19;142958;-78
2023/07/13 13:09:30;;;;;;;2.00;1.10;;;;;;;;;;7299616;19;140609;-79
2023/07/13 13:11:58;;;;;;;3.53;1.67;;;;;;;;;;7302877;19;140383;-78
2023/07/13 13:14:25;;;;;;;5.50;1.60;;;;;;;;;;7301787;19;141124;-78
2023/07/13 13:16:53;;;;;;;2.58;1.30;;;;;;;;;;7302433;19;140877;-77
2023/07/13 13:19:22;;;;;;;3.10;1.20;;;;;;;;;;7301635;19;140658;-75
2023/07/13 13:21:52;;;;;;;2.33;1.17;;;;;;;;;;7302608;19;140552;-74
2023/07/13 13:24:20;;;;;;;5.80;1.63;;;;;;;;;;7302438;19;142860;-76
2023/07/13 13:26:48;;;;;;;6.15;2.15;;;;;;;;;;7304244;19;142819;-79
2023/07/13 13:29:17;;;;;;;5.93;1.75;;;;;;;;;;7304043;19;140526;-82
2023/07/13 13:31:44;;;;;;;2.42;1.40;;;;;;;;;;7303597;19;140576;-90
2023/07/13 13:34:14;;;;;;;2.45;1.30;;;;;;;;;;7303984;19;141254;-79
2023/07/13 13:36:42;;;;;;;4.63;1.80;;;;;;;;;;7304727;19;143895;-74
2023/07/13 13:39:20;;;;;;;3.40;1.50;;;;;;;;;;7301977;19;140678;-81
2023/07/13 13:41:48;;;;;;;5.72;1.65;;;;;;;;;;7303685;19;140507;-76
2023/07/13 13:44:16;;;;;;;4.70;1.88;;;;;;;;;;7301373;19;141396;-76
2023/07/13 13:46:47;;;;;;;32.40;29.38;;;;;;;;;;7301544;19;142940;-74
2023/07/13 13:49:16;;;;;;;4.40;2.03;;;;;;;;;;7302174;19;140604;-75
2023/07/13 13:51:45;;;;;;;5.28;1.77;;;;;;;;;;7301022;19;140818;-74
2023/07/13 13:54:13;;;;;;;8.30;2.55;;;;;;;;;;7299952;19;140955;-73
2023/07/13 13:56:41;;;;;;;3.35;1.45;;;;;;;;;;7300871;19;142124;-73
2023/07/13 13:59:09;;;;;;;3.08;1.25;;;;;;;;;;7300857;19;140606;-73
2023/07/13 14:01:36;;;;;;;2.85;1.10;;;;;;;;;;7299203;19;140972;-73
2023/07/13 14:04:03;;;;;;;2.55;1.27;;;;;;;;;;7300488;19;141912;-73
2023/07/13 14:06:31;;;;;;;3.95;1.50;;;;;;;;;;7299751;19;142337;-72
2023/07/13 14:08:57;;;;;;;2.85;1.52;;;;;;;;;;7299856;19;140825;-72
2023/07/13 14:11:25;;;;;;;7.47;1.73;;;;;;;;;;7299098;19;140611;-72
2023/07/13 14:13:57;;;;;;;2.53;1.38;;;;;;;;;;7300098;19;141706;-73
2023/07/13 14:16:29;;;;;;;3.22;1.13;;;;;;;;;;7300495;19;141938;-72
2023/07/13 14:18:59;;;;;;;3.10;1.55;;;;;;;;;;7300856;19;140737;-73
2023/07/13 14:21:29;;;;;;;2.77;1.20;;;;;;;;;;7300697;19;140361;-73
2023/07/13 14:23:56;;;;;;;5.13;1.48;;;;;;;;;;7299987;19;140740;-73
2023/07/13 14:26:24;;;;;;;3.40;1.55;;;;;;;;;;7299400;19;141920;-72
2023/07/13 14:28:53;;;;;;;2.63;1.20;;;;;;;;;;7300600;19;140565;-72
2023/07/13 14:31:21;;;;;;;3.72;1.50;;;;;;;;;;7305998;19;140684;-72
2023/07/13 14:33:52;;;;;;;4.55;1.50;;;;;;;;;;7307386;19;140582;-72
2023/07/13 14:36:33;;;;;;;2.30;1.08;;;;;;;;;;7307340;19;142506;-71
2023/07/13 14:39:08;;;;;;;2.15;1.20;;;;;;;;;;7307636;19;140595;-71
2023/07/13 14:41:37;;;;;;;3.28;1.35;;;;;;;;;;7307666;19;140613;-73